Sand Point Airport Sand Point US
ICAO: PASD
IATA:
Category: Medium
Scheduled Services:

Elevation: 21 ft
TransAlt. 0 ft.

Airport Communications:
AWOS 3:134.85
CLNC DEL:122.3
ANCHORAGE CNTR:125.35
CTAF:122.3
COLD BAY RDO:122.3
UNICOM:122.8

PASD Zoom In..

If you have problems with the map follow the link
https://www.worldairports.se/pages/airport.php?
ICAO=PASD

Runways:

(A) RW 13 length 5213 ft width 150 ft
---- / hdg 134

(B) RW 31 length 5213 ft width 150 ft
---- / hdg 314

Location; PASD
Day. 13 / Time. 20.56 Zulu
* Altimeter: 29.48
* Temperature: 03° c. 37.4°f.
* Wind from: 220° Speed 04 kn.
Dewpoint: -03° c.
Visibility: 10 Statute Miles.
Clouds: Few 4000 ft.

PASD 132056Z 22004KT 10SM FEW040 03/M03 A2948 RMK AO2 SLP986 T00331033 51011 $


Wind From 220°
Speed 04 kn.

 
 
jpsmedia worldairports.se 2019   terms of use